Terminal Aerodrome Forecast
Issued by NWS

Current Version | Previous Version | Text Only | Print | Product List | Glossary On
Versions: 1 2 3 4 5 6 7 8 9 10 11 12
000
FTUS42 TJSJ 011100
TAFIST
TAF
TIST 011139Z 0112/0212 10007KT P6SM FEW030
     FM011330 12012KT P6SM SCT025
     FM012300 09007KT P6SM FEW025=

USA.gov is the U.S. government's official web portal to all federal, state and local government web resources and services.